Time;durP1;ratioP1;P1;durP2;ratioP2;P2;SDS_P1;SDS_P2;PMS_P1;PMS_P2;Temp;Humidity;BMP_temperature;BMP_pressure;BME280_temperature;BME280_humidity;BME280_pressure;Samples;Min_cycle;Max_cycle;Signal;HPM_P1;HPM_P2
2024/01/03 00:01:23;;;;;;;91.60;86.85;;;;;;;11.93;67.85;98664.41;5031046;28;20033;-75
2024/01/03 00:03:49;;;;;;;94.65;89.95;;;;;;;11.95;66.51;98669.53;5031804;28;20029;-74
2024/01/03 00:06:15;;;;;;;92.22;87.75;;;;;;;11.95;67.55;98678.44;5030003;28;20397;-73
2024/01/03 00:08:41;;;;;;;96.65;92.25;;;;;;;11.97;67.11;98691.66;5020394;28;20046;-74
2024/01/03 00:11:07;;;;;;;97.22;92.45;;;;;;;11.95;66.86;98700.09;5025809;28;20125;-74
2024/01/03 00:13:35;;;;;;;93.47;89.18;;;;;;;11.96;67.98;98698.19;5026081;28;20061;-73
2024/01/03 00:16:12;;;;;;;93.78;89.43;;;;;;;11.94;67.17;98705.78;5012151;28;20131;-74
2024/01/03 00:18:43;;;;;;;91.90;87.50;;;;;;;11.93;67.47;98710.41;5030844;28;20029;-73
2024/01/03 00:21:15;;;;;;;91.97;87.80;;;;;;;11.93;67.44;98721.22;5029984;28;20040;-72
2024/01/03 00:24:06;;;;;;;94.40;90.10;;;;;;;11.94;67.45;98716.63;5012652;28;20037;-73
2024/01/03 00:26:34;;;;;;;97.03;92.53;;;;;;;11.90;68.28;98722.63;5019291;28;20369;-72
2024/01/03 00:29:00;;;;;;;94.40;90.10;;;;;;;11.89;67.45;98712.91;5035837;28;20409;-72
2024/01/03 00:31:31;;;;;;;95.70;90.63;;;;;;;11.90;67.75;98711.81;5021784;28;20484;-71
2024/01/03 00:33:56;;;;;;;96.28;91.88;;;;;;;11.91;67.92;98707.19;5032141;28;20034;-73
2024/01/03 00:36:22;;;;;;;97.40;93.07;;;;;;;11.91;68.05;98707.19;5026039;28;20057;-73
2024/01/03 00:38:47;;;;;;;89.47;85.47;;;;;;;11.89;68.53;98717.50;5032085;28;20489;-74
2024/01/03 00:41:13;;;;;;;91.47;87.35;;;;;;;11.88;68.18;98718.63;5025405;28;20034;-73
2024/01/03 00:43:39;;;;;;;98.53;93.13;;;;;;;11.88;67.85;98715.91;5022169;28;20539;-71
2024/01/03 00:46:06;;;;;;;93.32;88.78;;;;;;;11.88;68.49;98732.16;5022773;28;20034;-72
2024/01/03 00:48:33;;;;;;;91.68;87.15;;;;;;;11.87;68.57;98735.97;5020287;28;20038;-71
2024/01/03 00:50:59;;;;;;;95.97;91.25;;;;;;;11.89;68.20;98745.38;5024312;28;20050;-71
2024/01/03 00:53:25;;;;;;;93.55;88.82;;;;;;;11.88;68.16;98727.53;5022349;28;20034;-71
2024/01/03 00:55:51;;;;;;;99.30;94.03;;;;;;;11.90;68.10;98757.00;5034543;28;20036;-71
2024/01/03 00:58:17;;;;;;;95.60;91.00;;;;;;;11.88;68.26;98746.47;5031206;28;20045;-72
2024/01/03 01:00:43;;;;;;;93.57;89.38;;;;;;;11.89;68.26;98753.50;5037743;28;20029;-72
2024/01/03 01:03:08;;;;;;;90.50;86.30;;;;;;;11.91;68.78;98739.66;5032074;28;20255;-71
2024/01/03 01:05:34;;;;;;;89.43;84.80;;;;;;;11.92;68.55;98752.09;5011706;28;20096;-72
2024/01/03 01:08:00;;;;;;;96.43;89.93;;;;;;;11.94;68.45;98752.59;5024452;28;20041;-71
2024/01/03 01:10:25;;;;;;;92.43;87.43;;;;;;;11.94;67.86;98757.19;5028492;28;20236;-73
2024/01/03 01:12:50;;;;;;;93.47;88.30;;;;;;;11.90;68.26;98760.50;5029469;28;20501;-73
2024/01/03 01:15:16;;;;;;;96.10;91.45;;;;;;;11.91;68.40;98761.31;5029140;28;20037;-72
2024/01/03 01:17:41;;;;;;;93.55;88.65;;;;;;;11.93;68.19;98761.00;5025808;28;20121;-71
2024/01/03 01:20:07;;;;;;;91.30;86.68;;;;;;;11.91;68.21;98764.00;5016662;28;20040;-72
2024/01/03 01:22:33;;;;;;;93.53;88.57;;;;;;;11.90;68.51;98768.63;5031357;28;20098;-72
2024/01/03 01:24:58;;;;;;;90.65;86.18;;;;;;;11.94;68.35;98774.22;5015095;28;20094;-74
2024/01/03 01:27:24;;;;;;;91.10;86.97;;;;;;;11.96;68.12;98771.22;5020164;28;20934;-72
2024/01/03 01:29:49;;;;;;;91.85;87.00;;;;;;;11.97;68.47;98770.94;5011605;28;20466;-73
2024/01/03 01:32:14;;;;;;;90.13;85.63;;;;;;;11.98;68.19;98774.44;5028526;28;20046;-72
2024/01/03 01:34:40;;;;;;;95.70;90.95;;;;;;;11.98;68.06;98766.31;5013495;28;20068;-71
2024/01/03 01:37:05;;;;;;;94.95;89.88;;;;;;;11.96;68.60;98769.31;5019932;28;20176;-71
2024/01/03 01:39:31;;;;;;;98.30;93.20;;;;;;;11.96;68.03;98792.88;5035675;28;20079;-71
2024/01/03 01:41:56;;;;;;;93.30;88.22;;;;;;;11.95;68.82;98781.25;5025931;28;20030;-71
2024/01/03 01:44:21;;;;;;;91.10;86.90;;;;;;;11.94;68.41;98781.53;5016047;28;20041;-71
2024/01/03 01:46:47;;;;;;;90.72;86.55;;;;;;;11.91;68.66;98783.75;5038110;28;20124;-71
2024/01/03 01:49:16;;;;;;;96.75;91.53;;;;;;;11.90;68.02;98778.66;5020388;28;20041;-71
2024/01/03 01:51:41;;;;;;;;;;;;;;;11.91;68.01;98796.47;5040288;28;20041;-71
2024/01/03 01:54:07;;;;;;;84.18;80.03;;;;;;;11.88;68.60;98788.97;5014807;28;19917;-72
2024/01/03 01:56:33;;;;;;;87.50;83.63;;;;;;;11.89;68.43;98801.38;5028008;28;20090;-72
2024/01/03 01:58:59;;;;;;;90.95;86.35;;;;;;;11.89;68.27;98791.38;5026423;28;20385;-71
2024/01/03 02:01:27;;;;;;;91.28;86.65;;;;;;;11.90;68.35;98805.69;5019162;28;20034;-73
2024/01/03 02:03:53;;;;;;;96.07;90.90;;;;;;;11.94;68.39;98798.56;5032678;28;20037;-72
2024/01/03 02:06:20;;;;;;;93.25;88.18;;;;;;;11.95;68.50;98794.00;5026998;28;20028;-72
2024/01/03 02:08:46;;;;;;;90.97;86.45;;;;;;;11.94;68.90;98805.91;5031040;28;20039;-72
2024/01/03 02:11:12;;;;;;;89.30;85.07;;;;;;;11.93;68.68;98817.84;5030266;28;20116;-72
2024/01/03 02:13:37;;;;;;;90.47;86.47;;;;;;;11.93;68.69;98824.03;5028928;28;20072;-72
2024/01/03 02:16:03;;;;;;;89.53;85.57;;;;;;;11.92;68.64;98811.63;5041213;28;20057;-71
2024/01/03 02:18:29;;;;;;;93.85;89.20;;;;;;;11.95;68.70;98824.56;5017026;28;20120;-74
2024/01/03 02:20:56;;;;;;;92.20;87.25;;;;;;;11.97;68.49;98816.13;5028653;28;20498;-72
2024/01/03 02:23:22;;;;;;;95.70;90.50;;;;;;;11.97;68.47;98819.66;5032745;28;20110;-72
2024/01/03 02:25:47;;;;;;;94.40;89.70;;;;;;;11.96;68.37;98819.94;5014910;28;20500;-72
2024/01/03 02:28:13;;;;;;;96.30;91.32;;;;;;;11.96;68.54;98823.44;5022521;28;20033;-72
2024/01/03 02:30:41;;;;;;;92.70;88.30;;;;;;;11.97;68.66;98825.06;5027795;28;20085;-72
2024/01/03 02:33:07;;;;;;;92.25;87.85;;;;;;;11.97;68.34;98810.69;5032571;28;20044;-71
2024/01/03 02:35:32;;;;;;;90.30;86.03;;;;;;;11.96;68.38;98823.44;5027419;28;20037;-72
2024/01/03 02:37:58;;;;;;;91.82;87.60;;;;;;;11.96;68.46;98830.75;5016649;28;20469;-72
2024/01/03 02:40:23;;;;;;;94.13;89.28;;;;;;;11.96;68.51;98833.47;5025467;28;20516;-72
2024/01/03 02:42:48;;;;;;;96.68;91.85;;;;;;;11.96;68.48;98836.16;5030047;28;20082;-72
2024/01/03 02:45:14;;;;;;;92.45;88.20;;;;;;;11.95;68.69;98829.16;5014249;28;20044;-72
2024/01/03 02:47:39;;;;;;;94.07;89.40;;;;;;;11.94;68.75;98831.03;5038450;28;20446;-72
2024/01/03 02:50:05;;;;;;;91.30;85.82;;;;;;;11.93;68.77;98839.47;5017550;28;20037;-73
2024/01/03 02:52:31;;;;;;;91.85;86.63;;;;;;;11.91;68.59;98842.47;5021796;28;20616;-73
2024/01/03 02:54:56;;;;;;;98.75;93.97;;;;;;;11.92;68.40;98838.69;5030728;28;20041;-72
2024/01/03 02:57:23;;;;;;;93.05;88.32;;;;;;;11.91;68.85;98848.69;5037601;28;20369;-73
2024/01/03 02:59:49;;;;;;;89.18;84.93;;;;;;;11.90;68.93;98844.38;5032905;28;20029;-72
2024/01/03 03:02:14;;;;;;;93.00;88.90;;;;;;;11.90;68.38;98844.38;5021908;28;20107;-75
2024/01/03 03:04:40;;;;;;;93.90;88.28;;;;;;;11.88;68.74;98841.16;5042443;28;20063;-73
2024/01/03 03:07:05;;;;;;;92.07;87.78;;;;;;;11.89;68.92;98836.53;5035986;28;20033;-73
2024/01/03 03:09:31;;;;;;;92.03;87.38;;;;;;;11.88;68.66;98840.38;5014465;28;20041;-72
2024/01/03 03:11:56;;;;;;;96.55;91.75;;;;;;;11.89;68.82;98853.59;5023465;28;20076;-74
2024/01/03 03:14:22;;;;;;;93.05;88.80;;;;;;;11.91;69.08;98851.38;5018384;28;20174;-73
2024/01/03 03:16:48;;;;;;;89.38;84.97;;;;;;;11.91;68.66;98850.59;5042112;28;20524;-73
2024/01/03 03:19:13;;;;;;;92.55;88.45;;;;;;;11.91;68.78;98848.69;5025246;28;20132;-72
2024/01/03 03:21:39;;;;;;;91.32;86.90;;;;;;;11.91;68.82;98853.28;5031227;28;20033;-73
2024/01/03 03:24:04;;;;;;;93.13;88.70;;;;;;;11.91;68.66;98842.47;5032274;28;20080;-72
2024/01/03 03:26:30;;;;;;;91.53;87.40;;;;;;;11.91;68.93;98854.09;5037804;28;20045;-73
2024/01/03 03:28:55;;;;;;;94.43;89.40;;;;;;;11.90;68.89;98847.09;5024864;28;20062;-72
2024/01/03 03:31:20;;;;;;;90.22;85.80;;;;;;;11.90;68.88;98851.69;5031588;28;20121;-73
2024/01/03 03:33:46;;;;;;;92.78;88.57;;;;;;;11.92;68.84;98849.50;5031257;28;20042;-73
2024/01/03 03:36:12;;;;;;;94.05;89.57;;;;;;;11.95;68.88;98837.28;5040237;28;20037;-73
2024/01/03 03:38:38;;;;;;;93.57;88.93;;;;;;;11.95;68.97;98834.56;5024271;28;20391;-72
2024/01/03 03:41:09;;;;;;;95.38;90.75;;;;;;;11.93;69.21;98825.94;5016456;28;20037;-73
2024/01/03 03:43:34;;;;;;;93.93;89.10;;;;;;;11.95;68.75;98837.28;5032287;28;20052;-73
2024/01/03 03:45:59;;;;;;;92.97;87.38;;;;;;;11.94;68.86;98841.06;5017255;28;20390;-75
2024/01/03 03:48:25;;;;;;;92.80;88.63;;;;;;;11.93;69.24;98839.47;5014410;28;20041;-72
2024/01/03 03:50:51;;;;;;;90.38;86.07;;;;;;;11.93;69.00;98847.59;5031980;28;20486;-73
2024/01/03 03:53:16;;;;;;;89.88;85.68;;;;;;;11.94;68.98;98846.47;5019083;28;20041;-74
2024/01/03 03:55:44;;;;;;;92.35;87.70;;;;;;;11.93;69.13;98850.31;5030068;28;20099;-73
2024/01/03 03:58:10;;;;;;;94.82;90.32;;;;;;;11.91;69.26;98856.00;5030507;28;20060;-73
2024/01/03 04:00:35;;;;;;;94.35;89.85;;;;;;;11.90;68.90;98854.41;5025955;28;20081;-74
2024/01/03 04:03:01;;;;;;;86.82;83.00;;;;;;;11.89;68.84;98863.59;5045728;28;20022;-73
2024/01/03 04:05:26;;;;;;;92.15;87.72;;;;;;;11.88;69.01;98862.81;5012646;28;20044;-72
2024/01/03 04:07:51;;;;;;;89.28;85.22;;;;;;;11.88;69.07;98859.31;5023838;28;20026;-73
2024/01/03 04:10:17;;;;;;;87.63;83.80;;;;;;;11.85;69.00;98854.47;5017171;28;20587;-74
2024/01/03 04:12:42;;;;;;;88.53;84.38;;;;;;;11.88;69.06;98864.72;5032705;28;20048;-72
2024/01/03 04:15:08;;;;;;;86.97;82.82;;;;;;;11.88;68.88;98864.72;5025473;28;20073;-74
2024/01/03 04:17:34;;;;;;;94.68;89.85;;;;;;;11.88;69.25;98854.69;5027511;28;20046;-74
2024/01/03 04:20:00;;;;;;;88.63;84.68;;;;;;;11.88;69.14;98868.22;5015089;28;20060;-74
2024/01/03 04:22:26;;;;;;;95.55;90.93;;;;;;;11.89;69.15;98869.00;5025452;28;20459;-73
2024/01/03 04:24:52;;;;;;;91.63;87.25;;;;;;;11.87;69.23;98866.63;5012638;28;20041;-72
2024/01/03 04:27:17;;;;;;;90.20;85.80;;;;;;;11.90;69.10;98857.09;5037063;28;20040;-73
2024/01/03 04:29:43;;;;;;;92.22;88.03;;;;;;;11.89;69.29;98866.31;5019688;28;20371;-73
2024/01/03 04:32:08;;;;;;;92.13;88.00;;;;;;;11.89;69.14;98869.84;5026163;28;20457;-74
2024/01/03 04:34:36;;;;;;;92.18;87.78;;;;;;;11.89;69.04;98872.53;5012164;28;20045;-74
2024/01/03 04:37:02;;;;;;;86.82;82.88;;;;;;;11.87;68.92;98874.75;5028579;28;20041;-72
2024/01/03 04:39:28;;;;;;;89.13;84.88;;;;;;;11.85;69.29;98870.69;5017241;28;20033;-74
2024/01/03 04:41:53;;;;;;;88.93;85.03;;;;;;;11.87;69.31;98873.94;5030688;28;20361;-74
2024/01/03 04:44:19;;;;;;;89.95;85.25;;;;;;;11.86;68.88;98872.28;5031689;28;20036;-73
2024/01/03 04:46:44;;;;;;;87.75;83.45;;;;;;;11.85;68.84;98866.06;5029929;28;20038;-74
2024/01/03 04:49:09;;;;;;;91.15;86.45;;;;;;;11.84;69.02;98869.06;5031937;28;20039;-73
2024/01/03 04:51:35;;;;;;;93.85;88.97;;;;;;;11.82;69.04;98872.09;5020134;28;20045;-73
2024/01/03 04:54:00;;;;;;;88.47;84.38;;;;;;;11.85;69.14;98871.50;5014729;28;20466;-73
2024/01/03 04:56:26;;;;;;;87.53;83.63;;;;;;;11.86;68.99;98877.69;5016635;28;20119;-74
2024/01/03 04:58:51;;;;;;;89.05;84.75;;;;;;;11.86;68.88;98880.41;5018397;28;20125;-73
2024/01/03 05:01:17;;;;;;;87.18;83.38;;;;;;;11.85;69.15;98887.72;5023396;28;20033;-72
2024/01/03 05:03:42;;;;;;;92.22;87.93;;;;;;;11.84;69.00;98882.59;5029449;28;20045;-72
2024/01/03 05:06:07;;;;;;;91.55;87.45;;;;;;;11.82;69.40;98876.69;5029569;28;20124;-74
2024/01/03 05:08:33;;;;;;;88.32;84.38;;;;;;;11.82;69.42;98887.53;5031323;28;20037;-72
2024/01/03 05:10:59;;;;;;;96.15;90.85;;;;;;;11.80;69.30;98870.78;5032985;28;20033;-73
2024/01/03 05:13:25;;;;;;;86.30;82.30;;;;;;;11.80;69.20;98874.28;5048605;28;20517;-73
2024/01/03 05:15:51;;;;;;;90.60;86.20;;;;;;;11.79;69.24;98878.09;5011396;28;20161;-74
2024/01/03 05:18:16;;;;;;;88.35;83.97;;;;;;;11.81;69.53;98875.06;5016657;28;20128;-74
2024/01/03 05:20:42;;;;;;;88.88;84.78;;;;;;;11.82;69.19;98871.28;5011558;28;20037;-73
2024/01/03 05:23:07;;;;;;;86.60;82.55;;;;;;;11.81;69.51;98867.75;5025012;28;20094;-73
2024/01/03 05:25:32;;;;;;;86.82;82.97;;;;;;;11.83;69.24;98879.09;5040758;28;20033;-74
2024/01/03 05:27:58;;;;;;;88.57;84.47;;;;;;;11.81;69.26;98869.66;5019090;28;20471;-74
2024/01/03 05:30:23;;;;;;;85.30;81.47;;;;;;;11.81;69.34;98870.47;5029365;28;20033;-73
2024/01/03 05:32:49;;;;;;;88.38;84.55;;;;;;;11.82;69.24;98876.69;5032311;28;20466;-72
2024/01/03 05:35:14;;;;;;;89.35;85.25;;;;;;;11.78;69.38;98878.38;5030830;28;20029;-74
2024/01/03 05:37:39;;;;;;;89.97;85.97;;;;;;;11.78;69.40;98878.38;5029671;28;20390;-74
2024/01/03 05:40:05;;;;;;;89.32;85.32;;;;;;;11.77;69.56;98871.34;5030516;28;20035;-71
2024/01/03 05:42:32;;;;;;;86.65;82.82;;;;;;;11.76;69.36;98873.25;5032844;28;20426;-75
2024/01/03 05:44:58;;;;;;;87.97;83.93;;;;;;;11.75;69.65;98884.38;5011936;28;20470;-73
2024/01/03 05:47:23;;;;;;;89.80;85.70;;;;;;;11.74;69.45;98888.97;5016050;28;20030;-72
2024/01/03 05:49:50;;;;;;;88.32;84.28;;;;;;;11.75;69.63;98898.72;5011147;28;20112;-73
2024/01/03 05:52:16;;;;;;;86.63;82.85;;;;;;;11.76;69.54;98896.81;5024757;28;20074;-73
2024/01/03 05:54:41;;;;;;;88.60;84.50;;;;;;;11.77;69.25;98895.69;5031186;28;20069;-74
2024/01/03 05:57:06;;;;;;;87.13;83.22;;;;;;;11.77;69.18;98891.13;5015326;28;20128;-72
2024/01/03 05:59:32;;;;;;;88.53;84.47;;;;;;;11.77;69.49;98901.09;5030400;28;20037;-76
2024/01/03 06:01:57;;;;;;;88.47;84.50;;;;;;;11.77;69.63;98910.03;5025905;28;20029;-72
2024/01/03 06:04:23;;;;;;;87.78;83.88;;;;;;;11.78;69.72;98905.44;5027231;28;20069;-72
2024/01/03 06:06:48;;;;;;;88.40;84.30;;;;;;;11.79;69.31;98905.16;5019566;28;20052;-73
2024/01/03 06:09:13;;;;;;;89.55;85.65;;;;;;;11.80;69.46;98905.94;5028451;28;20034;-73
2024/01/03 06:11:39;;;;;;;89.65;85.55;;;;;;;11.83;69.24;98894.53;5038685;28;20025;-72
2024/01/03 06:14:04;;;;;;;91.60;87.20;;;;;;;11.83;69.54;98899.94;5034597;28;20091;-73
2024/01/03 06:16:29;;;;;;;90.82;86.82;;;;;;;11.85;69.24;98901.25;5026482;28;20054;-72
2024/01/03 06:18:55;;;;;;;86.35;82.43;;;;;;;11.85;69.30;98893.13;5028401;28;20079;-72
2024/01/03 06:21:20;;;;;;;88.10;84.22;;;;;;;11.84;69.33;98899.66;5026166;28;20026;-73
2024/01/03 06:23:46;;;;;;;89.07;84.60;;;;;;;11.85;69.42;98900.44;5024445;28;20466;-72
2024/01/03 06:26:11;;;;;;;84.25;80.53;;;;;;;11.84;69.34;98912.34;5022660;28;20443;-72
2024/01/03 06:28:37;;;;;;;85.78;81.88;;;;;;;11.85;69.43;98914.78;5023569;28;20041;-72
2024/01/03 06:31:02;;;;;;;85.55;81.78;;;;;;;11.85;69.55;98914.78;5020514;28;20034;-72
2024/01/03 06:33:28;;;;;;;85.97;82.13;;;;;;;11.81;68.99;98916.44;5024319;28;20425;-73
2024/01/03 06:35:54;;;;;;;91.78;87.13;;;;;;;11.78;69.13;98933.28;5034638;28;20033;-72
2024/01/03 06:38:19;;;;;;;90.75;86.72;;;;;;;11.78;69.39;98935.19;5032466;28;20037;-72
2024/01/03 06:40:45;;;;;;;93.95;89.70;;;;;;;11.75;69.60;98942.00;5032388;28;20498;-74
2024/01/03 06:43:10;;;;;;;83.55;79.90;;;;;;;11.73;69.52;98933.34;5027858;28;20466;-71
2024/01/03 06:45:35;;;;;;;86.32;82.43;;;;;;;11.73;69.28;98937.97;5027012;28;20057;-71
2024/01/03 06:48:02;;;;;;;88.10;84.30;;;;;;;11.73;69.40;98932.56;5017483;28;20042;-73
2024/01/03 06:50:27;;;;;;;87.63;83.75;;;;;;;11.73;69.35;98921.75;5033781;28;20454;-73
2024/01/03 06:52:53;;;;;;;87.55;83.65;;;;;;;11.73;69.42;98919.84;5026995;28;20209;-73
2024/01/03 06:55:18;;;;;;;86.43;82.65;;;;;;;11.73;69.38;98924.44;5031089;28;20030;-72
2024/01/03 06:57:43;;;;;;;88.82;84.82;;;;;;;11.70;69.15;98923.94;5029937;28;20112;-74
2024/01/03 07:00:09;;;;;;;84.20;80.50;;;;;;;11.70;69.46;98923.13;5017059;28;20038;-73
2024/01/03 07:02:35;;;;;;;84.18;80.40;;;;;;;11.71;69.29;98919.31;5017678;28;20038;-73
2024/01/03 07:05:00;;;;;;;85.68;81.75;;;;;;;11.70;69.21;98926.63;5034956;28;20034;-74
2024/01/03 07:07:25;;;;;;;88.50;84.63;;;;;;;11.69;69.05;98918.81;5032444;28;20480;-74
2024/01/03 07:09:51;;;;;;;83.95;80.22;;;;;;;11.67;69.22;98932.66;5015697;28;20120;-73
2024/01/03 07:12:16;;;;;;;84.20;80.40;;;;;;;11.66;69.57;98922.09;5033076;28;20401;-73
2024/01/03 07:14:42;;;;;;;84.47;80.72;;;;;;;11.64;69.10;98927.00;5013856;28;20034;-74
2024/01/03 07:17:07;;;;;;;81.32;77.75;;;;;;;11.61;69.49;98933.81;5028882;28;20780;-72
2024/01/03 07:19:32;;;;;;;86.18;82.45;;;;;;;11.59;69.22;98938.72;5030186;28;20034;-75
2024/01/03 07:21:58;;;;;;;87.28;83.35;;;;;;;11.59;69.33;98936.03;5031354;28;20029;-74
2024/01/03 07:24:23;;;;;;;81.72;78.03;;;;;;;11.61;69.76;98941.13;5031482;28;20033;-73
2024/01/03 07:26:49;;;;;;;82.15;78.50;;;;;;;11.59;69.62;98944.13;5041704;28;20474;-74
2024/01/03 07:29:14;;;;;;;81.75;78.15;;;;;;;11.59;69.53;98941.44;5031156;28;20033;-73
2024/01/03 07:31:40;;;;;;;83.57;79.78;;;;;;;11.59;69.59;98941.44;5044536;28;20037;-74
2024/01/03 07:34:05;;;;;;;84.32;80.55;;;;;;;11.58;69.62;98944.41;5029147;28;20470;-72
2024/01/03 07:36:30;;;;;;;77.07;73.65;;;;;;;11.57;69.58;98954.44;5027376;28;20041;-72
2024/01/03 07:38:58;;;;;;;82.55;78.85;;;;;;;11.57;69.52;98951.72;5028384;28;20425;-72
2024/01/03 07:41:23;;;;;;;82.47;78.88;;;;;;;11.58;69.87;98957.94;5025827;28;20034;-72
2024/01/03 07:43:49;;;;;;;84.35;80.53;;;;;;;11.60;69.38;98961.16;5027986;28;20029;-74
2024/01/03 07:46:15;;;;;;;81.95;78.25;;;;;;;11.57;69.87;98951.72;5010206;28;20099;-73
2024/01/03 07:48:40;;;;;;;83.68;79.95;;;;;;;11.57;69.61;98957.13;5028918;28;20052;-72
2024/01/03 07:51:06;;;;;;;84.43;80.60;;;;;;;11.57;69.63;98959.84;5029579;28;20554;-71
2024/01/03 07:53:31;;;;;;;82.88;79.20;;;;;;;11.57;69.67;98961.75;5026451;28;20064;-74
2024/01/03 07:55:57;;;;;;;86.97;83.07;;;;;;;11.55;69.54;98972.84;5027555;28;20042;-72
2024/01/03 07:58:22;;;;;;;84.32;80.50;;;;;;;11.54;69.59;98973.13;5031422;28;20042;-72
2024/01/03 08:00:47;;;;;;;86.55;82.70;;;;;;;11.52;69.61;98965.31;5027010;28;20095;-73
2024/01/03 08:03:13;;;;;;;82.30;78.50;;;;;;;11.54;69.79;98975.81;5030294;28;20071;-73
2024/01/03 08:05:38;;;;;;;85.95;82.15;;;;;;;11.55;69.74;98974.75;5027436;28;20389;-73
2024/01/03 08:08:04;;;;;;;84.43;80.68;;;;;;;11.56;69.80;98979.06;5028815;28;20230;-71
2024/01/03 08:10:29;;;;;;;85.75;81.97;;;;;;;11.54;69.59;98979.34;5027891;28;20987;-73
2024/01/03 08:12:54;;;;;;;82.10;77.78;;;;;;;11.51;69.30;98977.22;5028048;28;20048;-75
2024/01/03 08:15:20;;;;;;;82.50;78.82;;;;;;;11.50;69.46;98977.53;5025118;28;20386;-73
2024/01/03 08:17:45;;;;;;;86.13;81.55;;;;;;;11.47;69.83;98985.13;5028430;28;20038;-75
2024/01/03 08:20:11;;;;;;;84.22;80.32;;;;;;;11.47;69.83;98973.50;5027393;28;20042;-74
2024/01/03 08:22:38;;;;;;;83.75;79.75;;;;;;;11.47;69.75;98979.72;5028392;28;20275;-73
2024/01/03 08:25:04;;;;;;;84.22;80.43;;;;;;;11.48;69.73;98983.22;5027759;28;20413;-73
2024/01/03 08:27:31;;;;;;;92.88;87.80;;;;;;;11.45;69.82;98978.41;5021956;28;20041;-74
2024/01/03 08:29:56;;;;;;;86.00;80.93;;;;;;;11.46;69.83;98978.13;5027379;28;20052;-72
2024/01/03 08:32:25;;;;;;;87.00;83.00;;;;;;;11.46;69.74;98985.41;5025486;28;20071;-73
2024/01/03 08:34:51;;;;;;;91.53;86.88;;;;;;;11.45;69.71;98984.59;5025354;28;20057;-73
2024/01/03 08:37:16;;;;;;;84.25;80.25;;;;;;;11.47;69.80;98992.44;5027839;28;20029;-74
2024/01/03 08:39:41;;;;;;;87.68;83.38;;;;;;;11.45;69.63;98995.41;5024448;28;20037;-72
2024/01/03 08:42:07;;;;;;;85.55;81.35;;;;;;;11.44;69.58;99001.94;5025457;28;20113;-75
2024/01/03 08:44:32;;;;;;;83.10;79.38;;;;;;;11.46;69.87;98988.09;5025535;28;20466;-75
2024/01/03 08:46:58;;;;;;;82.75;78.72;;;;;;;11.45;69.60;98981.91;5026211;28;20561;-74
2024/01/03 08:49:23;;;;;;;88.82;84.72;;;;;;;11.43;69.75;98989.50;5024870;28;20541;-77
2024/01/03 08:51:49;;;;;;;83.40;79.60;;;;;;;11.43;69.92;99000.31;5025270;28;20180;-74
2024/01/03 08:54:15;;;;;;;85.35;81.13;;;;;;;11.45;69.72;99000.03;5022123;28;20026;-75
2024/01/03 08:56:41;;;;;;;82.07;78.22;;;;;;;11.42;69.58;99003.31;5025993;28;20041;-73
2024/01/03 08:59:06;;;;;;;84.63;80.75;;;;;;;11.41;69.52;99009.81;5026676;28;20030;-75
2024/01/03 09:01:34;;;;;;;84.03;80.15;;;;;;;11.41;69.87;99009.81;5025737;28;20029;-73
2024/01/03 09:04:01;;;;;;;81.93;78.05;;;;;;;11.39;69.89;99007.41;5025434;28;20037;-74
2024/01/03 09:06:27;;;;;;;83.82;79.93;;;;;;;11.39;69.59;99002.00;5023031;28;20379;-73
2024/01/03 09:08:54;;;;;;;85.55;81.43;;;;;;;11.39;69.60;99009.28;5026048;28;20040;-75
2024/01/03 09:11:27;;;;;;;84.63;80.75;;;;;;;11.39;69.69;99001.16;5028784;28;20145;-73
2024/01/03 09:13:54;;;;;;;86.45;82.43;;;;;;;11.41;69.87;99016.00;5025475;28;20072;-75
2024/01/03 09:16:22;;;;;;;82.05;77.50;;;;;;;11.43;70.12;99004.91;5024246;28;20099;-73
2024/01/03 09:18:48;;;;;;;83.82;79.60;;;;;;;11.44;69.84;99018.16;5024329;28;20102;-75
2024/01/03 09:21:14;;;;;;;79.97;76.20;;;;;;;11.42;69.60;99020.34;5023580;28;20045;-75
2024/01/03 09:23:40;;;;;;;84.25;79.63;;;;;;;11.41;69.85;99018.72;5026536;28;20029;-74
2024/01/03 09:26:06;;;;;;;85.20;81.00;;;;;;;11.42;69.54;99027.66;5025271;28;20029;-74
2024/01/03 09:28:34;;;;;;;82.40;78.22;;;;;;;11.40;69.74;99022.53;5026045;28;20113;-74
2024/01/03 09:31:01;;;;;;;90.03;85.85;;;;;;;11.40;69.90;99029.84;5027030;28;20087;-76
2024/01/03 09:33:26;;;;;;;85.45;81.03;;;;;;;11.39;69.53;99025.50;5024633;28;20037;-73
2024/01/03 09:35:52;;;;;;;81.95;78.15;;;;;;;11.37;69.82;99017.69;5028010;28;20037;-74
2024/01/03 09:38:17;;;;;;;84.50;79.75;;;;;;;11.38;69.65;99032.00;5028201;28;20033;-74
2024/01/03 09:40:43;;;;;;;86.60;82.45;;;;;;;11.37;69.67;99027.72;5026294;28;20037;-73
2024/01/03 09:43:10;;;;;;;83.93;78.70;;;;;;;11.38;69.76;99034.72;5028980;28;20124;-74
2024/01/03 09:45:37;;;;;;;79.30;75.57;;;;;;;11.37;69.57;99031.22;5041966;28;20037;-74
2024/01/03 09:48:04;;;;;;;82.15;77.90;;;;;;;11.38;69.53;99043.63;5033341;28;20029;-73
2024/01/03 09:50:29;;;;;;;83.72;79.70;;;;;;;11.36;69.42;99039.59;5030676;28;20473;-74
2024/01/03 09:52:56;;;;;;;83.78;79.85;;;;;;;11.36;69.62;99045.00;5030986;28;20064;-74
2024/01/03 09:55:21;;;;;;;84.07;78.00;;;;;;;11.38;69.57;99032.00;5031091;28;20033;-73
2024/01/03 09:57:49;;;;;;;79.80;75.80;;;;;;;11.37;69.99;99036.63;5030867;28;20045;-74
2024/01/03 10:00:15;;;;;;;79.88;75.15;;;;;;;11.38;69.67;99030.09;5030048;28;20025;-74
2024/01/03 10:02:45;;;;;;;80.40;76.57;;;;;;;11.39;69.64;99047.97;5031173;28;20033;-72
2024/01/03 10:05:17;;;;;;;81.30;77.30;;;;;;;11.39;69.60;99049.84;5030204;28;20049;-75
2024/01/03 10:07:43;;;;;;;79.43;75.75;;;;;;;11.39;69.98;99050.66;5029922;28;20410;-72
2024/01/03 10:10:08;;;;;;;82.63;78.60;;;;;;;11.43;69.42;99045.47;5029644;28;20030;-73
2024/01/03 10:12:34;;;;;;;79.40;75.70;;;;;;;11.45;69.58;99054.09;5029910;28;20040;-73
2024/01/03 10:15:18;;;;;;;81.90;77.63;;;;;;;11.45;69.69;99048.69;5029714;28;20473;-75
2024/01/03 10:17:45;;;;;;;82.93;78.93;;;;;;;11.44;69.66;99045.19;5031379;28;20065;-73
2024/01/03 10:20:26;;;;;;;80.43;76.32;;;;;;;11.45;69.70;99051.41;5029526;28;20045;-75
2024/01/03 10:23:24;;;;;;;81.13;77.32;;;;;;;11.45;69.44;99057.59;5015109;28;20033;-73
2024/01/03 10:25:55;;;;;;;84.25;79.35;;;;;;;11.43;69.75;99056.28;5026666;28;20053;-73
2024/01/03 10:28:20;;;;;;;78.15;74.53;;;;;;;11.40;69.40;99054.97;5033120;28;20029;-73
2024/01/03 10:30:52;;;;;;;83.55;79.65;;;;;;;11.39;69.24;99061.47;5012227;28;20080;-73
2024/01/03 10:33:18;;;;;;;85.55;81.10;;;;;;;11.37;69.71;99065.56;5024681;28;20039;-73
2024/01/03 10:35:44;;;;;;;81.68;77.97;;;;;;;11.38;69.79;99064.44;5032421;28;20394;-73
2024/01/03 10:38:10;;;;;;;85.38;81.35;;;;;;;11.38;69.20;99075.25;5031830;28;20037;-73
2024/01/03 10:40:44;;;;;;;82.25;78.25;;;;;;;11.39;69.56;99066.88;5029653;28;20035;-74
2024/01/03 10:43:10;;;;;;;89.00;83.43;;;;;;;11.41;69.76;99066.56;5030498;28;20040;-74
2024/01/03 10:45:35;;;;;;;84.15;80.28;;;;;;;11.43;69.68;99065.19;5033558;28;20041;-73
2024/01/03 10:48:02;;;;;;;86.05;81.95;;;;;;;11.43;69.42;99053.56;5030059;28;20048;-74
2024/01/03 10:50:28;;;;;;;81.72;78.00;;;;;;;11.45;69.82;99043.28;5030619;28;20071;-73
2024/01/03 10:52:57;;;;;;;83.22;79.28;;;;;;;11.44;69.54;99050.59;5030964;28;20046;-74
2024/01/03 10:55:39;;;;;;;84.30;80.18;;;;;;;11.45;69.53;99043.28;5026981;28;20057;-74
2024/01/03 10:58:12;;;;;;;83.60;79.28;;;;;;;11.46;69.52;99056.53;5023590;28;20034;-74
2024/01/03 11:00:55;;;;;;;83.22;79.40;;;;;;;11.49;69.67;99060.53;5029387;28;20041;-74
2024/01/03 11:03:38;;;;;;;84.32;79.43;;;;;;;11.49;69.69;99065.94;5030903;28;20498;-72
2024/01/03 11:06:19;;;;;;;82.13;78.20;;;;;;;11.48;69.56;99065.13;5030522;28;20482;-77
2024/01/03 11:08:54;;;;;;;83.93;79.35;;;;;;;11.48;69.72;99073.25;5026382;28;20033;-72
2024/01/03 11:11:36;;;;;;;87.63;83.00;;;;;;;11.46;70.02;99072.75;5027495;28;20382;-73
2024/01/03 11:14:21;;;;;;;82.68;78.97;;;;;;;11.47;70.16;99073.53;5026247;28;20057;-72